Time;durP1;ratioP1;P1;durP2;ratioP2;P2;SDS_P1;SDS_P2;PMS_P1;PMS_P2;Temp;Humidity;BMP_temperature;BMP_pressure;BME280_temperature;BME280_humidity;BME280_pressure;Samples;Min_cycle;Max_cycle;Signal;HPM_P1;HPM_P2
2021/06/27 00:02:15;;;;;;;;;18.25;18.25;;;;;21.51;60.24;100919.72;4944022;28;45187;-46
2021/06/27 00:04:41;;;;;;;;;22.00;19.00;;;;;21.50;60.48;100911.78;4943729;28;45266;-49
2021/06/27 00:07:06;;;;;;;;;20.50;18.00;;;;;21.49;60.77;100921.59;4944200;28;45277;-47
2021/06/27 00:09:32;;;;;;;;;18.75;16.25;;;;;21.48;60.59;100921.69;4942357;28;45504;-48
2021/06/27 00:11:57;;;;;;;;;19.75;16.25;;;;;21.46;60.40;100924.47;4942152;28;48046;-47
2021/06/27 00:14:23;;;;;;;;;16.75;16.50;;;;;21.47;60.28;100919.97;4943589;28;45251;-49
2021/06/27 00:16:52;;;;;;;;;18.00;17.75;;;;;21.45;60.93;100917.38;4943665;28;45373;-47
2021/06/27 00:19:18;;;;;;;;;17.75;17.00;;;;;21.43;60.39;100917.47;4943478;28;45456;-49
2021/06/27 00:21:43;;;;;;;;;16.50;15.50;;;;;21.46;60.96;100931.59;4943564;28;46281;-50
2021/06/27 00:24:08;;;;;;;;;18.50;16.50;;;;;21.47;60.71;100941.34;4943284;28;45234;-48
2021/06/27 00:26:34;;;;;;;;;20.50;18.75;;;;;21.46;60.32;100940.50;4943683;28;45323;-46
2021/06/27 00:28:59;;;;;;;;;22.50;19.25;;;;;21.46;60.72;100934.28;4942292;28;45485;-51
2021/06/27 00:31:25;;;;;;;;;21.50;20.75;;;;;21.46;60.72;100944.97;4941978;28;46270;-51
2021/06/27 00:33:50;;;;;;;;;18.00;17.50;;;;;21.47;60.55;100936.00;4943366;28;45270;-51
2021/06/27 00:36:16;;;;;;;;;20.00;20.00;;;;;21.46;60.48;100928.94;4943506;28;45307;-47
2021/06/27 00:38:41;;;;;;;;;21.50;18.50;;;;;21.45;60.87;100935.25;4943443;28;45639;-47
2021/06/27 00:41:07;;;;;;;;;19.75;18.75;;;;;21.43;61.26;100938.88;4943082;28;46809;-49
2021/06/27 00:43:33;;;;;;;;;18.50;18.50;;;;;21.44;60.63;100942.38;4943211;28;45302;-50
2021/06/27 00:45:59;;;;;;;;;21.25;18.50;;;;;21.42;60.84;100954.97;4958363;28;45472;-50
2021/06/27 00:48:25;;;;;;;;;19.25;18.00;;;;;21.41;60.80;100964.81;4943155;28;45361;-47
2021/06/27 00:50:53;;;;;;;;;19.00;19.00;;;;;21.40;61.36;100949.72;4943025;28;46092;-50
2021/06/27 00:53:19;;;;;;;;;18.50;18.50;;;;;21.41;60.85;100947.91;4943116;28;45184;-48
2021/06/27 00:55:54;;;;;;;;;21.00;19.00;;;;;21.41;61.08;100953.25;4942873;28;45299;-48
2021/06/27 00:58:27;;;;;;;;;18.00;18.00;;;;;21.37;61.36;100955.25;4942846;28;45337;-49
2021/06/27 01:00:52;;;;;;;;;20.25;19.00;;;;;21.39;61.01;100969.38;4943017;28;45912;-50
2021/06/27 01:03:18;;;;;;;;;19.25;19.00;;;;;21.39;61.37;100968.50;4942802;28;45332;-49
2021/06/27 01:05:43;;;;;;;;;15.50;15.50;;;;;21.38;61.31;100975.69;4943409;28;45603;-48
2021/06/27 01:08:09;;;;;;;;;14.75;14.25;;;;;21.36;61.46;100952.66;4942879;28;45405;-46
2021/06/27 01:10:35;;;;;;;;;21.75;19.25;;;;;21.37;61.61;100944.56;4942445;28;46034;-46
2021/06/27 01:13:01;;;;;;;;;20.50;20.50;;;;;21.35;61.38;100933.06;4942608;28;45243;-47
2021/06/27 01:15:27;;;;;;;;;21.75;21.50;;;;;21.33;61.46;100918.94;4942851;28;45288;-48
2021/06/27 01:17:54;;;;;;;;;19.25;17.75;;;;;21.32;61.23;100901.19;4942527;28;45240;-50
2021/06/27 01:20:26;;;;;;;;;19.25;18.25;;;;;21.30;61.70;100911.09;4942537;28;46419;-51
2021/06/27 01:22:53;;;;;;;;;18.25;18.25;;;;;21.30;61.48;100913.78;4942516;28;45267;-51
2021/06/27 01:25:27;;;;;;;;;20.00;19.50;;;;;21.28;61.69;100918.31;4957252;28;45342;-50
2021/06/27 01:27:54;;;;;;;;;20.25;18.25;;;;;21.24;61.52;100915.00;4942200;28;45263;-47
2021/06/27 01:30:21;;;;;;;;;19.75;18.25;;;;;21.25;61.33;100923.84;4942206;28;46307;-49
2021/06/27 01:32:48;;;;;;;;;20.00;19.25;;;;;21.25;62.07;100910.50;4942303;28;45353;-48
2021/06/27 01:35:19;;;;;;;;;22.00;21.25;;;;;21.25;61.78;100902.47;4942614;28;45303;-48
2021/06/27 01:37:47;;;;;;;;;21.00;19.25;;;;;21.24;61.93;100888.28;4942129;28;45516;-48
2021/06/27 01:40:16;;;;;;;;;24.00;24.00;;;;;21.23;62.16;100877.66;4941976;28;46147;-47
2021/06/27 01:42:41;;;;;;;;;22.75;22.00;;;;;21.23;62.14;100881.19;4942238;28;45247;-46
2021/06/27 01:45:13;;;;;;;;;25.50;21.50;;;;;21.23;62.27;100880.31;4941028;28;45422;-50
2021/06/27 01:47:38;;;;;;;;;21.50;19.75;;;;;21.20;62.15;100877.84;4942485;28;45498;-49
2021/06/27 01:50:08;;;;;;;;;22.25;19.75;;;;;21.21;62.22;100879.56;4942000;28;45826;-48
2021/06/27 01:52:34;;;;;;;;;22.00;21.25;;;;;21.10;62.07;100864.97;4942263;28;45427;-47
2021/06/27 01:54:59;;;;;;;;;20.00;18.50;;;;;21.16;62.03;100874.47;4942193;28;45342;-46
2021/06/27 01:57:25;;;;;;;;;19.00;17.75;;;;;21.14;62.57;100870.16;4941819;28;45298;-46
2021/06/27 01:59:50;;;;;;;;;23.50;22.00;;;;;21.11;62.69;100872.06;4942128;28;46336;-47
2021/06/27 02:02:17;;;;;;;;;22.25;21.50;;;;;21.11;62.07;100876.53;4942154;28;45303;-46
2021/06/27 02:04:43;;;;;;;;;21.50;21.50;;;;;21.10;62.76;100872.13;4942220;28;45332;-50
2021/06/27 02:07:09;;;;;;;;;22.75;19.75;;;;;21.09;62.71;100865.94;4941970;28;45524;-47
2021/06/27 02:09:34;;;;;;;;;22.50;22.00;;;;;21.09;62.13;100859.72;4941799;28;47248;-50
2021/06/27 02:12:00;;;;;;;;;18.75;18.25;;;;;21.08;62.49;100853.53;4941672;28;45255;-47
2021/06/27 02:14:26;;;;;;;;;22.25;20.25;;;;;21.07;62.91;100848.28;4941986;28;45277;-46
2021/06/27 02:16:51;;;;;;;;;20.25;20.25;;;;;21.03;62.82;100836.91;4941840;28;45184;-48
2021/06/27 02:19:16;;;;;;;;;18.75;17.25;;;;;21.02;62.90;100823.63;4956648;28;46187;-46
2021/06/27 02:21:42;;;;;;;;;21.00;20.50;;;;;21.03;62.72;100806.66;4940534;28;45347;-49
2021/06/27 02:24:07;;;;;;;;;21.50;21.50;;;;;21.02;62.67;100803.13;4941908;28;45247;-51
2021/06/27 02:26:34;;;;;;;;;21.00;20.25;;;;;21.02;62.73;100802.25;4937124;28;45680;-46
2021/06/27 02:29:01;;;;;;;;;20.00;19.00;;;;;20.98;62.69;100790.91;4935494;28;45367;-48
2021/06/27 02:31:27;;;;;;;;;22.25;19.75;;;;;20.98;62.65;100785.56;4941571;28;45305;-48
2021/06/27 02:33:53;;;;;;;;;26.00;23.00;;;;;20.95;62.53;100772.38;4941720;28;45365;-48
2021/06/27 02:36:20;;;;;;;;;19.00;18.50;;;;;20.93;63.22;100761.78;4941528;28;45365;-47
2021/06/27 02:38:45;;;;;;;;;25.50;22.25;;;;;20.93;63.02;100759.09;4940018;28;46625;-49
2021/06/27 02:41:11;;;;;;;;;19.75;17.75;;;;;20.91;63.10;100760.16;4941442;28;45738;-47
2021/06/27 02:43:38;;;;;;;;;23.00;21.25;;;;;20.90;62.65;100763.75;4941563;28;45175;-51
2021/06/27 02:46:04;;;;;;;;;19.50;18.00;;;;;20.88;63.32;100771.88;4941575;28;45267;-51
2021/06/27 02:48:30;;;;;;;;;21.00;21.00;;;;;20.86;62.77;100784.44;4941213;28;45604;-48
2021/06/27 02:50:55;;;;;;;;;21.50;20.75;;;;;20.81;63.14;100773.16;4941617;28;45322;-47
2021/06/27 02:53:21;;;;;;;;;21.25;18.25;;;;;20.82;62.76;100774.88;4943951;28;45403;-46
2021/06/27 02:55:46;;;;;;;;;18.75;17.75;;;;;20.80;63.28;100782.09;4944720;28;45365;-48
2021/06/27 02:58:13;;;;;;;;;23.75;22.75;;;;;20.80;63.14;100789.28;4943295;28;46755;-49
2021/06/27 03:00:38;;;;;;;;;20.25;18.25;;;;;20.78;63.26;100792.03;4944965;28;45321;-51
2021/06/27 03:03:04;;;;;;;;;20.75;20.00;;;;;20.77;62.89;100788.47;4959546;28;45190;-47
2021/06/27 03:05:29;;;;;;;;;21.25;18.25;;;;;20.77;62.76;100795.66;4944946;28;45216;-46
2021/06/27 03:07:55;;;;;;;;;20.00;18.00;;;;;20.77;63.27;100784.97;4944585;28;46107;-49
2021/06/27 03:10:20;;;;;;;;;22.00;21.25;;;;;20.76;63.50;100775.22;4944462;28;45232;-51
2021/06/27 03:12:48;;;;;;;;;20.00;17.75;;;;;20.76;63.55;100775.22;4943298;28;45883;-50
2021/06/27 03:15:18;;;;;;;;;23.75;21.50;;;;;20.75;63.45;100774.38;4944689;28;45445;-50
2021/06/27 03:17:44;;;;;;;;;25.00;20.25;;;;;20.75;63.37;100777.06;4944300;28;46908;-50
2021/06/27 03:20:11;;;;;;;;;20.25;18.00;;;;;20.74;63.03;100771.78;4944508;28;45614;-51
2021/06/27 03:22:37;;;;;;;;;19.75;16.75;;;;;20.70;62.88;100757.69;4944656;28;45184;-47
2021/06/27 03:25:04;;;;;;;;;19.25;19.25;;;;;20.71;63.36;100769.28;4955762;28;45368;-48
2021/06/27 03:27:30;;;;;;;;;19.25;18.75;;;;;20.71;63.18;100771.97;4939230;28;48202;-46
2021/06/27 03:29:56;;;;;;;;;19.25;17.00;;;;;20.71;63.59;100767.47;4944121;28;45489;-50
2021/06/27 03:32:21;;;;;;;;;19.50;19.50;;;;;20.73;63.77;100762.06;4944316;28;45251;-48
2021/06/27 03:34:46;;;;;;;;;21.75;20.50;;;;;20.71;63.16;100755.94;4944423;28;45323;-47
2021/06/27 03:37:12;;;;;;;;;19.50;17.25;;;;;20.71;63.62;100751.44;4942727;28;47006;-49
2021/06/27 03:39:37;;;;;;;;;20.25;20.25;;;;;20.70;63.71;100749.69;4944246;28;45289;-47
2021/06/27 03:42:03;;;;;;;;;16.25;14.75;;;;;20.61;63.69;100735.06;4943962;28;45334;-49
2021/06/27 03:44:29;;;;;;;;;22.00;20.00;;;;;20.69;63.25;100750.66;4944248;28;45213;-48
2021/06/27 03:46:56;;;;;;;;;21.00;20.50;;;;;20.69;63.67;100744.44;4943768;28;47170;-50
2021/06/27 03:49:22;;;;;;;;;15.50;15.50;;;;;20.67;63.94;100757.88;4944150;28;45467;-50
2021/06/27 03:51:47;;;;;;;;;18.50;18.50;;;;;20.62;63.72;100762.63;4943958;28;45268;-49
2021/06/27 03:54:14;;;;;;;;;21.75;18.75;;;;;20.61;63.66;100776.91;4943954;28;45227;-50
2021/06/27 03:56:39;;;;;;;;;24.50;21.75;;;;;20.62;63.94;100778.63;4943531;28;45497;-50
2021/06/27 03:59:05;;;;;;;;;21.25;21.25;;;;;20.59;63.57;100777.00;4943987;28;45277;-51
2021/06/27 04:01:31;;;;;;;;;20.25;18.50;;;;;20.60;64.02;100783.19;4943881;28;45342;-49
2021/06/27 04:03:56;;;;;;;;;17.50;17.50;;;;;20.60;63.54;100794.75;4942782;28;45480;-48
2021/06/27 04:06:22;;;;;;;;;22.00;19.50;;;;;20.60;63.68;100794.75;4943655;28;45401;-46
2021/06/27 04:08:47;;;;;;;;;21.50;17.75;;;;;20.60;64.09;100792.09;4943882;28;45463;-50
2021/06/27 04:11:12;;;;;;;;;24.25;22.50;;;;;20.60;63.64;100788.53;4943641;28;45356;-49
2021/06/27 04:13:38;;;;;;;;;18.00;17.50;;;;;20.61;64.13;100784.91;4943810;28;45485;-51
2021/06/27 04:16:05;;;;;;;;;23.00;20.75;;;;;20.59;64.18;100782.34;4942197;28;46840;-49
2021/06/27 04:18:32;;;;;;;;;19.75;18.25;;;;;20.59;63.77;100781.47;4943904;28;45296;-50
2021/06/27 04:20:58;;;;;;;;;19.50;18.00;;;;;20.58;63.64;100783.28;4943572;28;45260;-49
2021/06/27 04:23:26;;;;;;;;;23.50;19.00;;;;;20.58;64.17;100777.09;4943603;28;45330;-50
2021/06/27 04:25:51;;;;;;;;;20.25;20.00;;;;;20.58;63.59;100782.44;4943000;28;46959;-49
2021/06/27 04:28:17;;;;;;;;;23.00;19.00;;;;;20.55;64.17;100772.78;4941981;28;45335;-50
2021/06/27 04:30:43;;;;;;;;;20.50;18.50;;;;;20.57;64.12;100775.38;4943340;28;45380;-49
2021/06/27 04:33:10;;;;;;;;;18.75;18.50;;;;;20.57;64.05;100773.53;4943369;28;45569;-50
2021/06/27 04:35:37;;;;;;;;;18.75;18.75;;;;;20.57;63.74;100778.03;4943285;28;46176;-48
2021/06/27 04:38:07;;;;;;;;;18.25;17.25;;;;;20.57;64.03;100786.06;4943296;28;45295;-47
2021/06/27 04:40:36;;;;;;;;;19.50;19.25;;;;;20.55;64.29;100771.91;4942798;28;45327;-50
2021/06/27 04:43:03;;;;;;;;;21.50;20.75;;;;;20.57;64.47;100775.38;4943012;28;45506;-47
2021/06/27 04:45:29;;;;;;;;;22.50;19.50;;;;;20.56;64.24;100768.31;4942765;28;46316;-51
2021/06/27 04:47:54;;;;;;;;;23.00;20.50;;;;;20.58;64.44;100771.75;4942968;28;45243;-48
2021/06/27 04:50:20;;;;;;;;;22.25;19.75;;;;;20.58;64.36;100766.41;4943070;28;45311;-48
2021/06/27 04:52:47;;;;;;;;;20.50;20.50;;;;;20.53;64.17;100752.47;4941788;28;45592;-49
2021/06/27 04:55:13;;;;;;;;;21.00;18.25;;;;;20.58;64.48;100771.75;4942694;28;45461;-52
2021/06/27 04:57:38;;;;;;;;;20.50;19.75;;;;;20.57;63.77;100764.69;4942645;28;45232;-49
2021/06/27 05:00:06;;;;;;;;;23.75;21.25;;;;;20.57;64.48;100764.69;4942978;28;45332;-47
2021/06/27 05:02:32;;;;;;;;;24.25;21.50;;;;;20.57;64.57;100760.19;4942956;28;45478;-50
2021/06/27 05:04:57;;;;;;;;;21.25;16.50;;;;;20.56;64.05;100750.47;4942737;28;45207;-46
2021/06/27 05:07:22;;;;;;;;;22.75;21.25;;;;;20.59;64.36;100755.66;4941399;28;45547;-48
2021/06/27 05:09:49;;;;;;;;;20.75;19.75;;;;;20.58;64.06;100767.28;4942655;28;45224;-51
2021/06/27 05:12:15;;;;;;;;;23.75;23.75;;;;;20.59;64.38;100768.13;4941219;28;45719;-50
2021/06/27 05:14:41;;;;;;;;;22.50;20.50;;;;;20.59;63.94;100766.31;4940813;28;45440;-49
2021/06/27 05:17:07;;;;;;;;;26.50;25.00;;;;;20.60;64.09;100769.84;4942220;28;45454;-49
2021/06/27 05:19:32;;;;;;;;;22.75;18.75;;;;;20.59;64.65;100771.66;4941473;28;45370;-46
2021/06/27 05:21:57;;;;;;;;;25.25;20.00;;;;;20.59;64.38;100774.34;4942610;28;45568;-51
2021/06/27 05:24:23;;;;;;;;;19.50;18.50;;;;;20.57;64.65;100765.53;4942577;28;45437;-49
2021/06/27 05:26:48;;;;;;;;;19.25;19.25;;;;;20.58;64.11;100771.75;4942258;28;45354;-52
2021/06/27 05:29:13;;;;;;;;;18.25;17.75;;;;;20.60;64.27;100769.84;4942529;28;45385;-49
2021/06/27 05:31:39;;;;;;;;;19.25;18.50;;;;;20.58;64.47;100761.09;4942435;28;45235;-49
2021/06/27 05:34:05;;;;;;;;;19.50;19.00;;;;;20.61;64.67;100761.75;4942325;28;45262;-47
2021/06/27 05:36:36;;;;;;;;;19.00;16.50;;;;;20.61;64.26;100761.75;4942507;28;45419;-59
2021/06/27 05:39:03;;;;;;;;;23.00;20.00;;;;;20.62;64.57;100770.63;4942413;28;45403;-59
2021/06/27 05:41:29;;;;;;;;;17.50;17.50;;;;;20.62;64.49;100763.47;4942185;28;45184;-59
2021/06/27 05:43:56;;;;;;;;;20.75;20.00;;;;;20.61;64.76;100753.75;4940630;28;46033;-59
2021/06/27 05:46:21;;;;;;;;;18.25;18.25;;;;;20.60;64.38;100754.72;4942469;28;45449;-59
2021/06/27 05:48:46;;;;;;;;;17.50;17.25;;;;;20.58;64.37;100769.09;4941977;28;45441;-59
2021/06/27 05:51:12;;;;;;;;;22.50;21.25;;;;;20.58;65.00;100766.41;4942367;28;45288;-59
2021/06/27 05:53:38;;;;;;;;;20.50;17.75;;;;;20.57;64.45;100770.03;4942070;28;46268;-59
2021/06/27 05:56:10;;;;;;;;;19.50;18.75;;;;;20.58;64.46;100771.75;4942055;28;45405;-59
2021/06/27 05:58:41;;;;;;;;;22.75;20.25;;;;;20.60;64.41;100777.84;4942051;28;45212;-59
2021/06/27 06:01:09;;;;;;;;;19.00;18.75;;;;;20.59;64.40;100778.78;4942260;28;45315;-58
2021/06/27 06:03:35;;;;;;;;;20.75;20.75;;;;;20.63;64.58;100777.69;4941645;28;45338;-59
2021/06/27 06:06:00;;;;;;;;;26.50;21.75;;;;;20.66;64.45;100788.19;4941983;28;45225;-59
2021/06/27 06:08:26;;;;;;;;;22.00;18.75;;;;;20.67;64.39;100779.25;4941923;28;45211;-58
2021/06/27 06:10:53;;;;;;;;;19.50;17.50;;;;;20.70;64.53;100794.22;4940656;28;45445;-62
2021/06/27 06:13:18;;;;;;;;;21.00;20.00;;;;;20.71;64.29;100788.81;4941645;28;45346;-59
2021/06/27 06:15:44;;;;;;;;;19.75;18.00;;;;;20.70;64.28;100780.88;4941560;28;45356;-58
2021/06/27 06:18:09;;;;;;;;;23.50;21.25;;;;;20.73;64.38;100776.25;4956759;28;45255;-59
2021/06/27 06:20:35;;;;;;;;;18.50;18.50;;;;;20.74;64.39;100783.34;4940617;28;45453;-59
2021/06/27 06:23:01;;;;;;;;;20.00;18.00;;;;;20.77;64.28;100776.94;4941581;28;46030;-59
2021/06/27 06:25:26;;;;;;;;;20.00;17.25;;;;;20.77;64.29;100771.63;4940139;28;45337;-59
2021/06/27 06:27:52;;;;;;;;;15.75;15.25;;;;;20.81;64.85;100766.97;4939435;28;45323;-59
2021/06/27 06:30:17;;;;;;;;;18.00;17.75;;;;;20.81;64.19;100767.81;4941512;28;45247;-63
2021/06/27 06:32:43;;;;;;;;;16.75;16.00;;;;;20.81;64.78;100765.13;4941371;28;45411;-63
2021/06/27 06:35:09;;;;;;;;;21.00;19.25;;;;;20.84;64.25;100772.13;4956575;28;45790;-60
2021/06/27 06:37:34;;;;;;;;;17.25;17.25;;;;;20.87;64.74;100763.94;4941506;28;45478;-58
2021/06/27 06:39:59;;;;;;;;;22.75;20.75;;;;;20.89;64.37;100772.72;4941358;28;45334;-62
2021/06/27 06:42:25;;;;;;;;;19.75;18.25;;;;;20.92;64.44;100769.88;4941116;28;45258;-60
2021/06/27 06:44:50;;;;;;;;;16.75;16.00;;;;;20.93;64.00;100771.63;4941526;28;45239;-61
2021/06/27 06:47:15;;;;;;;;;25.25;20.00;;;;;20.94;64.10;100767.97;4940146;28;45266;-61
2021/06/27 06:49:41;;;;;;;;;18.25;17.50;;;;;20.99;64.50;100781.06;4941553;28;45291;-60
2021/06/27 06:52:07;;;;;;;;;20.00;17.25;;;;;21.00;64.43;100769.44;4939907;28;46943;-62
2021/06/27 06:54:32;;;;;;;;;20.50;20.00;;;;;21.00;64.70;100772.09;4941417;28;45294;-61
2021/06/27 06:56:57;;;;;;;;;21.50;18.50;;;;;21.01;64.51;100765.81;4940977;28;45227;-61
2021/06/27 06:59:23;;;;;;;;;20.50;19.75;;;;;21.06;64.68;100775.28;4941322;28;45545;-59
2021/06/27 07:01:48;;;;;;;;;20.25;19.75;;;;;21.10;64.83;100775.97;4941026;28;46174;-65
2021/06/27 07:04:13;;;;;;;;;17.75;14.75;;;;;21.11;64.67;100775.88;4941198;28;45492;-59
2021/06/27 07:06:39;;;;;;;;;22.00;20.50;;;;;21.11;64.22;100778.53;4941445;28;45380;-63
2021/06/27 07:09:04;;;;;;;;;21.50;19.00;;;;;21.12;64.61;100784.75;4941039;28;45484;-58
2021/06/27 07:11:30;;;;;;;;;22.25;21.50;;;;;21.14;64.38;100784.66;4940741;28;46243;-57
2021/06/27 07:13:55;;;;;;;;;26.00;23.25;;;;;21.15;64.30;100779.22;4941191;28;45456;-55
2021/06/27 07:16:20;;;;;;;;;18.25;17.75;;;;;21.19;64.71;100779.91;4955850;28;45664;-58
2021/06/27 07:18:46;;;;;;;;;14.50;14.50;;;;;21.20;64.42;100778.97;4939750;28;45520;-58
2021/06/27 07:21:11;;;;;;;;;19.25;18.25;;;;;21.21;64.37;100781.53;4940780;28;45999;-59
2021/06/27 07:23:37;;;;;;;;;16.00;15.00;;;;;21.23;64.30;100774.31;4941071;28;45318;-58
2021/06/27 07:26:02;;;;;;;;;20.75;19.00;;;;;21.25;64.07;100771.53;4939464;28;45464;-58
2021/06/27 07:28:27;;;;;;;;;16.00;16.00;;;;;21.30;63.86;100772.13;4940795;28;45587;-58
2021/06/27 07:30:53;;;;;;;;;16.25;15.75;;;;;21.33;64.03;100771.09;4939356;28;48181;-63
2021/06/27 07:33:19;;;;;;;;;21.25;18.75;;;;;21.34;63.75;100773.66;4940941;28;45322;-68
2021/06/27 07:35:44;;;;;;;;;22.00;19.50;;;;;21.36;64.29;100774.44;4940800;28;45429;-64
2021/06/27 07:38:09;;;;;;;;;18.00;18.00;;;;;21.39;63.64;100778.75;4956414;28;45490;-61
2021/06/27 07:40:35;;;;;;;;;17.25;16.75;;;;;21.39;65.29;100766.22;4943730;28;46384;-46
2021/06/27 07:43:00;;;;;;;;;18.25;17.50;;;;;21.38;66.08;100775.22;4944098;28;45168;-48
2021/06/27 07:45:26;;;;;;;;;18.75;16.75;;;;;21.40;66.65;100770.63;4944068;28;45231;-48
2021/06/27 07:47:51;;;;;;;;;19.75;17.50;;;;;21.45;66.16;100766.84;4944281;28;45441;-53
2021/06/27 07:50:16;;;;;;;;;17.25;16.25;;;;;21.48;66.08;100761.31;4943752;28;45418;-50
2021/06/27 07:52:42;;;;;;;;;20.00;18.00;;;;;21.50;66.51;100760.25;4944085;28;45164;-49
2021/06/27 07:55:08;;;;;;;;;17.75;17.00;;;;;21.53;65.99;100757.38;4943818;28;45276;-46
2021/06/27 07:57:33;;;;;;;;;18.75;18.75;;;;;21.52;66.60;100750.34;4943947;28;45287;-46
2021/06/27 07:59:59;;;;;;;;;21.25;18.50;;;;;21.57;66.13;100755.41;4943573;28;46294;-50
2021/06/27 08:02:24;;;;;;;;;18.75;18.75;;;;;21.61;66.32;100756.09;4944009;28;45309;-60
2021/06/27 08:04:49;;;;;;;;;19.00;17.25;;;;;21.61;66.61;100748.97;4943851;28;45441;-53
2021/06/27 08:07:15;;;;;;;;;17.50;17.25;;;;;21.67;66.74;100755.72;4943915;28;45384;-50
2021/06/27 08:09:40;;;;;;;;;19.75;19.75;;;;;21.69;66.51;100761.84;4943481;28;45352;-50
2021/06/27 08:12:06;;;;;;;;;22.50;20.75;;;;;21.72;66.63;100756.31;4958399;28;45364;-49
2021/06/27 08:14:32;;;;;;;;;21.50;18.50;;;;;21.76;66.53;100747.16;4943768;28;45259;-50
2021/06/27 08:16:57;;;;;;;;;21.75;20.25;;;;;21.79;66.56;100757.66;4943434;28;45413;-49
2021/06/27 08:19:22;;;;;;;;;19.00;17.50;;;;;21.84;66.76;100762.75;4943567;28;45541;-52
2021/06/27 08:21:48;;;;;;;;;24.25;20.75;;;;;21.86;66.69;100760.81;4943582;28;45358;-56
2021/06/27 08:24:13;;;;;;;;;19.25;18.25;;;;;21.93;66.11;100756.81;4943637;28;45286;-53
2021/06/27 08:26:38;;;;;;;;;18.00;17.25;;;;;21.96;66.63;100769.13;4955003;28;45538;-54
2021/06/27 08:29:04;;;;;;;;;18.75;18.75;;;;;22.00;66.43;100779.56;4936807;28;46161;-57
2021/06/27 08:31:29;;;;;;;;;20.25;18.00;;;;;22.05;66.21;100781.97;4943356;28;45251;-55
2021/06/27 08:33:55;;;;;;;;;22.50;22.50;;;;;22.05;66.09;100788.16;4943591;28;45293;-55
2021/06/27 08:36:21;;;;;;;;;19.50;17.75;;;;;22.06;66.41;100784.53;4943502;28;45405;-57
2021/06/27 08:38:46;;;;;;;;;17.25;16.50;;;;;22.11;66.15;100784.22;4942924;28;45280;-56
2021/06/27 08:41:17;;;;;;;;;22.25;21.00;;;;;22.12;66.16;100779.75;4943093;28;45396;-55
2021/06/27 08:43:43;;;;;;;;;18.25;18.25;;;;;22.17;66.08;100785.69;4939951;28;45486;-52
2021/06/27 08:46:12;;;;;;;;;20.50;17.50;;;;;22.20;65.98;100783.69;4957324;28;45524;-54
2021/06/27 08:48:39;;;;;;;;;18.25;18.25;;;;;22.24;66.21;100779.00;4942412;28;46135;-54
2021/06/27 08:51:08;;;;;;;;;20.25;18.00;;;;;22.26;65.96;100781.56;4941656;28;45429;-48
2021/06/27 08:53:36;;;;;;;;;20.00;17.50;;;;;22.29;66.37;100782.25;4935643;28;45321;-49
2021/06/27 08:56:06;;;;;;;;;17.75;17.75;;;;;22.33;66.37;100783.75;4942514;28;45375;-50
2021/06/27 08:58:37;;;;;;;;;20.50;19.50;;;;;22.37;65.99;100792.50;4942252;28;45924;-48
2021/06/27 09:01:13;;;;;;;;;22.75;21.50;;;;;22.39;66.31;100790.59;4941459;28;45511;-46
2021/06/27 09:03:38;;;;;;;;;20.25;19.25;;;;;22.42;66.17;100795.75;4942970;28;45183;-53
2021/06/27 09:06:04;;;;;;;;;22.00;21.00;;;;;22.44;65.86;100793.84;4942642;28;45498;-50
2021/06/27 09:08:29;;;;;;;;;21.00;20.00;;;;;22.44;66.08;100792.97;4942712;28;45404;-53
2021/06/27 09:10:55;;;;;;;;;20.00;17.25;;;;;22.42;65.79;100790.38;4942148;28;45343;-51
2021/06/27 09:13:43;;;;;;;;;18.50;18.50;;;;;22.44;65.92;100788.47;4942656;28;45344;-53
2021/06/27 09:16:23;;;;;;;;;18.75;18.75;;;;;22.44;65.76;100793.84;4943204;28;45473;-52
2021/06/27 09:18:49;;;;;;;;;19.50;18.00;;;;;22.44;66.07;100783.13;4942258;28;45453;-54
2021/06/27 09:21:16;;;;;;;;;23.00;20.50;;;;;22.46;65.92;100791.91;4957113;28;45312;-55
2021/06/27 09:23:44;;;;;;;;;23.50;20.00;;;;;22.44;66.11;100792.97;4935672;28;45333;-57
2021/06/27 09:26:10;;;;;;;;;17.50;14.75;;;;;22.46;65.92;100791.06;4953141;28;45289;-57
2021/06/27 09:28:54;;;;;;;;;23.25;20.00;;;;;22.48;66.15;100789.16;4941901;28;45201;-55
2021/06/27 09:31:43;;;;;;;;;23.50;23.25;;;;;22.50;66.21;100792.56;4942015;28;45298;-54
2021/06/27 09:34:13;;;;;;;;;23.25;21.50;;;;;22.50;66.09;100798.81;4938980;28;45246;-55
2021/06/27 09:36:50;;;;;;;;;21.75;21.25;;;;;22.52;65.78;100802.22;4942191;28;45274;-56
2021/06/27 09:39:18;;;;;;;;;20.25;20.00;;;;;22.53;66.20;100803.94;4941777;28;46179;-55
2021/06/27 09:41:52;;;;;;;;;25.00;22.00;;;;;22.53;65.83;100795.91;4941734;28;45420;-50
2021/06/27 09:44:18;;;;;;;;;24.75;22.25;;;;;22.58;65.96;100802.78;4938379;28;45409;-55
2021/06/27 09:46:46;;;;;;;;;22.00;20.00;;;;;22.58;66.25;100806.34;4942040;28;45433;-55
2021/06/27 09:49:25;;;;;;;;;23.50;22.25;;;;;22.56;65.85;100806.44;4941622;28;46199;-53
2021/06/27 09:51:55;;;;;;;;;24.00;21.75;;;;;22.57;65.84;100809.97;4941492;28;45246;-53
2021/06/27 09:54:25;;;;;;;;;21.25;20.75;;;;;22.58;65.83;100817.06;4941882;28;45556;-51
2021/06/27 09:56:51;;;;;;;;;19.50;19.50;;;;;22.61;65.97;100818.66;4941189;28;45191;-55
2021/06/27 09:59:18;;;;;;;;;22.75;22.00;;;;;22.61;65.83;100824.88;4941453;28;46265;-54
2021/06/27 10:01:44;;;;;;;;;22.50;19.25;;;;;22.62;65.84;100823.94;4941004;28;45686;-50
2021/06/27 10:04:26;;;;;;;;;23.25;22.25;;;;;22.62;65.82;100837.31;4941933;28;45352;-51
2021/06/27 10:06:53;;;;;;;;;25.75;25.00;;;;;22.64;66.06;100834.53;4937070;28;45232;-55
2021/06/27 10:09:21;;;;;;;;;22.00;21.75;;;;;22.64;66.11;100827.38;4941571;28;46281;-54
2021/06/27 10:12:04;;;;;;;;;18.25;18.25;;;;;22.66;66.10;100828.13;4940003;28;45488;-54
2021/06/27 10:14:34;;;;;;;;;22.50;22.00;;;;;22.68;66.14;100833.41;4941516;28;45329;-53
2021/06/27 10:17:02;;;;;;;;;21.00;20.00;;;;;22.70;65.83;100835.03;4941271;28;45255;-55
2021/06/27 10:19:27;;;;;;;;;25.25;24.00;;;;;22.72;66.40;100837.59;4941266;28;45392;-55
2021/06/27 10:21:58;;;;;;;;;19.25;19.25;;;;;22.72;66.12;100841.13;4941269;28;45314;-54
2021/06/27 10:24:24;;;;;;;;;22.50;22.25;;;;;22.71;66.38;100852.78;4941341;28;45418;-54
2021/06/27 10:26:50;;;;;;;;;19.50;19.00;;;;;22.68;66.41;100853.00;4937756;28;45449;-55
2021/06/27 10:29:20;;;;;;;;;21.25;20.75;;;;;22.67;66.40;100853.94;4940973;28;46111;-54
2021/06/27 10:31:49;;;;;;;;;20.75;18.75;;;;;22.69;66.24;100852.03;4931003;28;45451;-54
2021/06/27 10:34:14;;;;;;;;;24.75;22.75;;;;;22.68;66.26;100849.47;4941255;28;45262;-55
2021/06/27 10:36:43;;;;;;;;;26.50;26.25;;;;;22.69;66.21;100853.84;4940078;28;45717;-51
2021/06/27 10:39:10;;;;;;;;;51.00;42.75;;;;;22.67;66.43;100856.63;4940935;28;46557;-52
2021/06/27 10:41:50;;;;;;;;;28.00;22.00;;;;;22.67;66.34;100853.94;4955910;28;45575;-52
2021/06/27 10:44:19;;;;;;;;;25.75;21.75;;;;;22.69;66.36;100857.41;4938151;28;45468;-54
2021/06/27 10:46:48;;;;;;;;;24.75;22.25;;;;;22.68;66.32;100853.00;4941066;28;45453;-49
2021/06/27 10:49:32;;;;;;;;;25.75;23.25;;;;;22.68;66.42;100858.34;4934586;28;47037;-50
2021/06/27 10:51:59;;;;;;;;;26.00;23.50;;;;;22.67;66.59;100861.97;4937171;28;45321;-53
2021/06/27 10:54:26;;;;;;;;;24.25;22.50;;;;;22.63;66.43;100863.13;4941370;28;45293;-60
2021/06/27 10:56:53;;;;;;;;;28.00;23.75;;;;;22.60;66.85;100852.59;4938778;28;45479;-56
2021/06/27 10:59:52;;;;;;;;;24.25;22.25;;;;;22.59;66.98;100860.75;4940431;28;47191;-55
2021/06/27 11:02:36;;;;;;;;;20.25;19.75;;;;;22.52;66.56;100855.78;4932579;28;45320;-53
2021/06/27 11:05:33;;;;;;;;;25.50;22.50;;;;;22.52;66.79;100860.28;4940822;28;45315;-52
2021/06/27 11:08:00;;;;;;;;;21.75;21.75;;;;;22.38;67.09;100840.56;4938434;28;45314;-50
2021/06/27 11:10:27;;;;;;;;;19.75;19.25;;;;;22.43;66.83;100856.34;4939234;28;47431;-50